Time;durP1;ratioP1;P1;durP2;ratioP2;P2;SDS_P1;SDS_P2;PMS_P1;PMS_P2;Temp;Humidity;BMP_temperature;BMP_pressure;BME280_temperature;BME280_humidity;BME280_pressure;Samples;Min_cycle;Max_cycle;Signal;HPM_P1;HPM_P2
2022/11/23 00:00:12;;;;;;;;;;;22.00;67.10;;;;;;1572140;75;723;-64
2022/11/23 00:02:14;;;;;;;;;;;21.90;67.20;;;;;;1565301;74;667;-64
2022/11/23 00:04:16;;;;;;;;;;;21.80;67.30;;;;;;1570033;75;719;-63
2022/11/23 00:06:18;;;;;;;;;;;21.80;67.40;;;;;;1567298;75;686;-63
2022/11/23 00:08:20;;;;;;;;;;;21.90;67.50;;;;;;1560784;74;1199;-64
2022/11/23 00:10:22;;;;;;;;;;;21.90;67.50;;;;;;1560514;74;552;-65
2022/11/23 00:12:24;;;;;;;;;;;21.80;67.50;;;;;;1562056;74;1934;-65
2022/11/23 00:14:25;;;;;;;;;;;21.90;67.50;;;;;;1562165;74;595;-64
2022/11/23 00:16:28;;;;;;;;;;;21.90;67.50;;;;;;1563603;74;689;-65
2022/11/23 00:18:30;;;;;;;;;;;21.80;67.50;;;;;;1561501;74;1169;-64
2022/11/23 00:20:32;;;;;;;;;;;21.90;67.80;;;;;;1569128;74;792;-64
2022/11/23 00:22:34;;;;;;;;;;;21.80;67.60;;;;;;1568812;74;669;-64
2022/11/23 00:24:36;;;;;;;;;;;21.80;67.70;;;;;;1569414;74;698;-64
2022/11/23 00:26:38;;;;;;;;;;;21.90;67.60;;;;;;1566810;74;671;-64
2022/11/23 00:28:40;;;;;;;;;;;21.80;67.50;;;;;;1568606;74;1138;-65
2022/11/23 00:30:42;;;;;;;;;;;21.90;67.40;;;;;;1566716;74;681;-64
2022/11/23 00:32:44;;;;;;;;;;;22.00;67.20;;;;;;1560661;74;1929;-64
2022/11/23 00:34:46;;;;;;;;;;;21.90;67.10;;;;;;1570212;74;666;-64
2022/11/23 00:36:48;;;;;;;;;;;22.00;67.10;;;;;;1571931;74;680;-64
2022/11/23 00:38:50;;;;;;;;;;;22.00;66.90;;;;;;1542708;74;1213;-64
2022/11/23 00:40:53;;;;;;;;;;;22.10;66.90;;;;;;1569828;74;748;-64
2022/11/23 00:42:55;;;;;;;;;;;22.10;66.90;;;;;;1561700;74;1777;-63
2022/11/23 00:44:57;;;;;;;;;;;22.00;66.80;;;;;;1570967;75;596;-65
2022/11/23 00:46:59;;;;;;;;;;;22.00;66.70;;;;;;1563713;75;709;-64
2022/11/23 00:49:01;;;;;;;;;;;22.00;66.80;;;;;;1569179;74;1156;-64
2022/11/23 00:51:04;;;;;;;;;;;22.00;66.60;;;;;;1558253;74;685;-63
2022/11/23 00:53:05;;;;;;;;;;;22.10;66.60;;;;;;1566492;75;1927;-64
2022/11/23 00:55:07;;;;;;;;;;;22.10;66.60;;;;;;1557441;75;659;-64
2022/11/23 00:57:09;;;;;;;;;;;22.10;66.50;;;;;;1567959;74;1147;-65
2022/11/23 00:59:11;;;;;;;;;;;22.10;66.40;;;;;;1559336;74;696;-63
2022/11/23 01:01:13;;;;;;;;;;;22.00;66.30;;;;;;1560520;74;629;-64
2022/11/23 01:03:15;;;;;;;;;;;22.10;66.40;;;;;;1571506;74;676;-65
2022/11/23 01:05:17;;;;;;;;;;;22.10;66.40;;;;;;1563155;74;796;-64
2022/11/23 01:07:19;;;;;;;;;;;22.10;66.40;;;;;;1575638;74;1384;-63
2022/11/23 01:09:25;;;;;;;;;;;22.00;66.40;;;;;;1570538;74;684;-64
2022/11/23 01:11:25;;;;;;;;;;;22.00;66.50;;;;;;1564318;74;1737;-64
2022/11/23 01:13:27;;;;;;;;;;;22.00;66.70;;;;;;1560294;74;1922;-64
2022/11/23 01:15:29;;;;;;;;;;;21.90;66.80;;;;;;1569863;74;724;-64
2022/11/23 01:17:50;;;;;;;;;;;21.90;67.00;;;;;;1569283;74;1252;-62
2022/11/23 01:19:52;;;;;;;;;;;21.90;67.10;;;;;;1641027;71;695;-59
2022/11/23 01:21:54;;;;;;;;;;;21.90;67.30;;;;;;1631050;72;702;-59
2022/11/23 01:23:56;;;;;;;;;;;21.80;67.30;;;;;;1639299;72;737;-57
2022/11/23 01:25:59;;;;;;;;;;;21.80;67.40;;;;;;1652822;70;765;-56
2022/11/23 01:28:00;;;;;;;;;;;21.80;67.50;;;;;;1656067;71;1176;-58
2022/11/23 01:30:02;;;;;;;;;;;21.80;67.50;;;;;;1660649;71;632;-58
2022/11/23 01:32:04;;;;;;;;;;;21.70;67.60;;;;;;1663958;71;1909;-56
2022/11/23 01:34:06;;;;;;;;;;;21.80;67.50;;;;;;1656940;71;719;-59
2022/11/23 01:36:15;;;;;;;;;;;21.80;67.30;;;;;;1671534;71;693;-54
2022/11/23 01:38:17;;;;;;;;;;;21.80;67.40;;;;;;1653574;71;1172;-56
2022/11/23 01:40:19;;;;;;;;;;;21.80;67.60;;;;;;1658927;71;762;-58
2022/11/23 01:42:21;;;;;;;;;;;21.80;67.60;;;;;;1649603;71;686;-57
2022/11/23 01:44:29;;;;;;;;;;;21.70;67.70;;;;;;1646720;71;681;-58
2022/11/23 01:46:31;;;;;;;;;;;21.80;67.80;;;;;;1652431;71;698;-55
2022/11/23 01:48:37;;;;;;;;;;;21.80;68.00;;;;;;1646138;71;1121;-58
2022/11/23 01:50:39;;;;;;;;;;;21.80;67.90;;;;;;1656385;71;670;-60
2022/11/23 01:52:41;;;;;;;;;;;21.70;68.10;;;;;;1648716;71;1943;-57
2022/11/23 01:54:50;;;;;;;;;;;21.70;68.10;;;;;;1655811;71;665;-58
2022/11/23 01:56:55;;;;;;;;;;;21.70;68.20;;;;;;1646721;71;950;-60
2022/11/23 01:58:58;;;;;;;;;;;21.70;68.30;;;;;;1648077;71;1132;-59
2022/11/23 02:01:00;;;;;;;;;;;21.60;68.20;;;;;;1646824;71;678;-59
2022/11/23 02:03:01;;;;;;;;;;;21.70;68.30;;;;;;1646934;71;722;-59
2022/11/23 02:05:04;;;;;;;;;;;21.60;68.10;;;;;;1653233;71;1594;-57
2022/11/23 02:07:05;;;;;;;;;;;21.60;68.10;;;;;;1646825;71;648;-54
2022/11/23 02:09:07;;;;;;;;;;;21.60;68.00;;;;;;1655646;71;1100;-57
2022/11/23 02:11:10;;;;;;;;;;;21.60;68.10;;;;;;1659228;71;719;-55
2022/11/23 02:13:12;;;;;;;;;;;21.60;68.10;;;;;;1643377;71;1952;-57
2022/11/23 02:15:14;;;;;;;;;;;21.60;68.00;;;;;;1648097;71;852;-54
2022/11/23 02:17:16;;;;;;;;;;;21.60;68.00;;;;;;1647597;71;715;-55
2022/11/23 02:19:19;;;;;;;;;;;21.60;68.00;;;;;;1645658;71;1079;-57
2022/11/23 02:21:21;;;;;;;;;;;21.60;68.10;;;;;;1643724;71;1795;-59
2022/11/23 02:23:24;;;;;;;;;;;21.60;68.00;;;;;;1647969;71;753;-59
2022/11/23 02:25:46;;;;;;;;;;;21.60;68.00;;;;;;1659929;71;1759;-55
2022/11/23 02:27:48;;;;;;;;;;;21.60;67.90;;;;;;1647643;71;1101;-57
2022/11/23 02:29:50;;;;;;;;;;;21.60;68.00;;;;;;1652966;71;681;-59
2022/11/23 02:31:52;;;;;;;;;;;21.60;68.00;;;;;;1649594;71;622;-60
2022/11/23 02:33:54;;;;;;;;;;;21.60;68.00;;;;;;1650142;71;1939;-60
2022/11/23 02:35:57;;;;;;;;;;;21.60;67.90;;;;;;1651504;71;761;-61
2022/11/23 02:38:00;;;;;;;;;;;21.60;67.90;;;;;;1652771;71;1175;-60
2022/11/23 02:40:02;;;;;;;;;;;21.60;67.90;;;;;;1653374;71;713;-57
2022/11/23 02:42:04;;;;;;;;;;;21.50;67.90;;;;;;1645855;71;666;-56
2022/11/23 02:44:07;;;;;;;;;;;21.60;67.80;;;;;;1651634;71;708;-57
2022/11/23 02:46:09;;;;;;;;;;;21.60;67.90;;;;;;1650661;71;727;-58
2022/11/23 02:48:11;;;;;;;;;;;21.60;67.90;;;;;;1649761;71;1137;-56
2022/11/23 02:50:13;;;;;;;;;;;21.60;68.00;;;;;;1646267;71;753;-56
2022/11/23 02:52:15;;;;;;;;;;;21.60;68.00;;;;;;1651071;71;1919;-54
2022/11/23 02:54:17;;;;;;;;;;;21.60;68.20;;;;;;1651611;71;743;-57
2022/11/23 02:56:19;;;;;;;;;;;21.50;68.10;;;;;;1653007;71;712;-57
2022/11/23 02:58:21;;;;;;;;;;;21.60;68.20;;;;;;1644499;71;1140;-59
2022/11/23 03:00:22;;;;;;;;;;;21.60;68.30;;;;;;1648989;71;1666;-60
2022/11/23 03:02:24;;;;;;;;;;;21.60;68.20;;;;;;1654339;71;719;-59
2022/11/23 03:04:26;;;;;;;;;;;21.60;68.20;;;;;;1653842;71;702;-59
2022/11/23 03:06:28;;;;;;;;;;;21.60;68.30;;;;;;1645625;71;739;-58
2022/11/23 03:08:30;;;;;;;;;;;21.60;68.30;;;;;;1654760;71;1133;-56
2022/11/23 03:10:32;;;;;;;;;;;21.60;68.40;;;;;;1650384;71;660;-56
2022/11/23 03:12:34;;;;;;;;;;;21.60;68.40;;;;;;1648262;71;1926;-56
2022/11/23 03:14:37;;;;;;;;;;;21.50;68.50;;;;;;1667525;71;1604;-59
2022/11/23 03:16:39;;;;;;;;;;;21.50;68.80;;;;;;1654166;71;719;-59
2022/11/23 03:18:41;;;;;;;;;;;21.50;68.80;;;;;;1661322;71;1143;-57
2022/11/23 03:20:43;;;;;;;;;;;21.50;68.70;;;;;;1654854;71;679;-55
2022/11/23 03:22:45;;;;;;;;;;;21.50;68.70;;;;;;1655922;71;812;-60
2022/11/23 03:24:47;;;;;;;;;;;21.50;68.50;;;;;;1647647;71;765;-59
2022/11/23 03:26:49;;;;;;;;;;;21.60;68.40;;;;;;1651466;70;675;-58
2022/11/23 03:28:50;;;;;;;;;;;21.70;68.30;;;;;;1653016;70;1622;-58
2022/11/23 03:30:52;;;;;;;;;;;21.70;68.10;;;;;;1649073;71;740;-54
2022/11/23 03:32:54;;;;;;;;;;;21.70;68.10;;;;;;1665670;71;1948;-58
2022/11/23 03:34:56;;;;;;;;;;;21.70;67.90;;;;;;1657968;71;696;-53
2022/11/23 03:36:58;;;;;;;;;;;21.70;67.90;;;;;;1656136;71;688;-56
2022/11/23 03:39:00;;;;;;;;;;;21.70;67.80;;;;;;1649978;71;1168;-59
2022/11/23 03:41:02;;;;;;;;;;;21.70;67.80;;;;;;1657489;71;660;-56
2022/11/23 03:43:04;;;;;;;;;;;21.90;67.50;;;;;;1649708;71;1585;-59
2022/11/23 03:45:06;;;;;;;;;;;21.90;67.20;;;;;;1648501;71;680;-59
2022/11/23 03:47:08;;;;;;;;;;;21.90;67.10;;;;;;1646361;71;662;-58
2022/11/23 03:49:11;;;;;;;;;;;21.90;67.00;;;;;;1653366;71;1075;-57
2022/11/23 03:51:13;;;;;;;;;;;21.90;66.90;;;;;;1658643;71;683;-60
2022/11/23 03:53:15;;;;;;;;;;;21.90;66.70;;;;;;1660557;71;1941;-57
2022/11/23 03:55:17;;;;;;;;;;;21.90;66.90;;;;;;1650602;71;695;-58
2022/11/23 03:57:18;;;;;;;;;;;21.90;66.80;;;;;;1647010;71;1482;-59
2022/11/23 03:59:20;;;;;;;;;;;21.80;66.90;;;;;;1650268;71;1085;-58
2022/11/23 04:01:22;;;;;;;;;;;21.80;66.70;;;;;;1645450;71;757;-58
2022/11/23 04:03:24;;;;;;;;;;;21.90;67.00;;;;;;1653633;71;687;-58
2022/11/23 04:05:26;;;;;;;;;;;21.80;66.80;;;;;;1660208;71;694;-57
2022/11/23 04:07:28;;;;;;;;;;;21.70;66.90;;;;;;1669128;71;759;-59
2022/11/23 04:09:30;;;;;;;;;;;21.70;67.10;;;;;;1664229;71;1119;-60
2022/11/23 04:11:32;;;;;;;;;;;21.60;67.20;;;;;;1657635;70;1575;-60
2022/11/23 04:13:34;;;;;;;;;;;21.60;67.40;;;;;;1661620;71;1949;-58
2022/11/23 04:15:36;;;;;;;;;;;21.60;67.40;;;;;;1666548;71;673;-59
2022/11/23 04:17:38;;;;;;;;;;;21.60;67.60;;;;;;1659610;71;1140;-60
2022/11/23 04:19:39;;;;;;;;;;;21.60;67.80;;;;;;1658535;71;680;-58
2022/11/23 04:21:41;;;;;;;;;;;21.50;67.90;;;;;;1662975;71;558;-57
2022/11/23 04:23:43;;;;;;;;;;;21.50;67.90;;;;;;1660492;71;743;-60
2022/11/23 04:25:45;;;;;;;;;;;21.50;68.00;;;;;;1668095;71;1342;-61
2022/11/23 04:27:47;;;;;;;;;;;21.50;68.00;;;;;;1659936;71;1167;-59
2022/11/23 04:29:49;;;;;;;;;;;21.50;68.10;;;;;;1648810;71;553;-58
2022/11/23 04:31:51;;;;;;;;;;;21.50;68.10;;;;;;1663776;71;715;-58
2022/11/23 04:33:54;;;;;;;;;;;21.50;68.10;;;;;;1666437;71;1925;-58
2022/11/23 04:35:56;;;;;;;;;;;21.50;68.10;;;;;;1650995;71;751;-59
2022/11/23 04:37:58;;;;;;;;;;;21.50;68.20;;;;;;1668159;71;1105;-59
2022/11/23 04:40:00;;;;;;;;;;;21.50;68.40;;;;;;1652309;70;1746;-60
2022/11/23 04:42:02;;;;;;;;;;;21.50;68.40;;;;;;1646820;71;639;-59
2022/11/23 04:44:04;;;;;;;;;;;21.50;68.50;;;;;;1652476;71;737;-59
2022/11/23 04:46:06;;;;;;;;;;;21.40;68.40;;;;;;1669486;71;633;-60
2022/11/23 04:48:08;;;;;;;;;;;21.50;68.70;;;;;;1660336;71;1215;-59
2022/11/23 04:50:10;;;;;;;;;;;21.40;68.50;;;;;;1667810;71;533;-59
2022/11/23 04:52:12;;;;;;;;;;;21.50;68.70;;;;;;1646001;70;1566;-56
2022/11/23 04:54:14;;;;;;;;;;;21.40;68.70;;;;;;1664845;71;1935;-60
2022/11/23 04:56:16;;;;;;;;;;;21.40;68.80;;;;;;1665050;71;683;-59
2022/11/23 04:58:18;;;;;;;;;;;21.40;68.90;;;;;;1659501;71;1180;-58
2022/11/23 05:00:20;;;;;;;;;;;21.40;69.00;;;;;;1658903;71;683;-56
2022/11/23 05:02:21;;;;;;;;;;;21.40;69.10;;;;;;1663673;71;692;-60
2022/11/23 05:04:23;;;;;;;;;;;21.40;69.10;;;;;;1660741;71;700;-57
2022/11/23 05:06:25;;;;;;;;;;;21.40;69.00;;;;;;1656683;71;1542;-56
2022/11/23 05:08:27;;;;;;;;;;;21.30;69.20;;;;;;1659068;70;1144;-59
2022/11/23 05:10:29;;;;;;;;;;;21.30;69.30;;;;;;1650581;71;740;-59
2022/11/23 05:12:31;;;;;;;;;;;21.30;69.30;;;;;;1661270;71;655;-60
2022/11/23 05:14:33;;;;;;;;;;;21.40;69.30;;;;;;1663182;71;1921;-59
2022/11/23 05:16:35;;;;;;;;;;;21.30;69.30;;;;;;1663985;71;684;-60
2022/11/23 05:18:37;;;;;;;;;;;21.40;69.20;;;;;;1660600;71;1142;-58
2022/11/23 05:20:39;;;;;;;;;;;21.30;69.30;;;;;;1668160;70;1532;-58
2022/11/23 05:22:40;;;;;;;;;;;21.30;69.30;;;;;;1655499;70;771;-55
2022/11/23 05:24:42;;;;;;;;;;;21.30;69.20;;;;;;1672730;71;650;-60
2022/11/23 05:26:44;;;;;;;;;;;21.30;69.30;;;;;;1663336;71;703;-60
2022/11/23 05:28:46;;;;;;;;;;;21.30;69.20;;;;;;1666522;71;1117;-57
2022/11/23 05:30:48;;;;;;;;;;;21.40;69.20;;;;;;1664664;71;690;-60
2022/11/23 05:32:50;;;;;;;;;;;21.30;69.20;;;;;;1672976;71;677;-60
2022/11/23 05:34:52;;;;;;;;;;;21.30;69.30;;;;;;1666352;71;1952;-57
2022/11/23 05:36:54;;;;;;;;;;;21.30;69.30;;;;;;1648988;71;732;-55
2022/11/23 05:38:56;;;;;;;;;;;21.30;69.40;;;;;;1654385;71;1140;-55
2022/11/23 05:40:57;;;;;;;;;;;21.30;69.40;;;;;;1658843;71;719;-58
2022/11/23 05:42:59;;;;;;;;;;;21.30;69.50;;;;;;1661470;71;676;-58
2022/11/23 05:45:01;;;;;;;;;;;21.30;69.60;;;;;;1661684;71;748;-59
2022/11/23 05:47:03;;;;;;;;;;;21.30;69.60;;;;;;1654636;71;868;-59
2022/11/23 05:49:05;;;;;;;;;;;21.30;69.70;;;;;;1655079;71;1316;-59
2022/11/23 05:51:07;;;;;;;;;;;21.30;69.70;;;;;;1657880;71;684;-57
2022/11/23 05:53:09;;;;;;;;;;;21.30;69.80;;;;;;1673851;71;690;-60
2022/11/23 05:55:10;;;;;;;;;;;21.30;69.70;;;;;;1662568;71;1930;-57
2022/11/23 05:57:14;;;;;;;;;;;21.30;69.80;;;;;;1663108;71;793;-59
2022/11/23 05:59:16;;;;;;;;;;;21.30;69.80;;;;;;1668863;71;1131;-58
2022/11/23 06:01:18;;;;;;;;;;;21.30;69.90;;;;;;1654214;71;715;-60
2022/11/23 06:03:20;;;;;;;;;;;21.30;69.90;;;;;;1662346;70;1562;-57
2022/11/23 06:05:22;;;;;;;;;;;21.40;70.10;;;;;;1660795;71;754;-56
2022/11/23 06:07:24;;;;;;;;;;;21.40;70.20;;;;;;1666204;71;585;-59
2022/11/23 06:09:26;;;;;;;;;;;21.50;69.90;;;;;;1668145;70;1098;-60
2022/11/23 06:11:30;;;;;;;;;;;21.60;69.30;;;;;;1659023;71;692;-61
2022/11/23 06:13:32;;;;;;;;;;;21.60;69.00;;;;;;1650087;71;1915;-60
2022/11/23 06:15:33;;;;;;;;;;;21.70;68.70;;;;;;1663359;71;718;-60
2022/11/23 06:17:35;;;;;;;;;;;21.80;68.40;;;;;;1674030;70;1558;-59
2022/11/23 06:19:37;;;;;;;;;;;21.80;68.20;;;;;;1650355;71;669;-59
2022/11/23 06:21:39;;;;;;;;;;;21.80;67.90;;;;;;1665953;71;763;-60
2022/11/23 06:23:41;;;;;;;;;;;21.80;67.70;;;;;;1670351;71;789;-59
2022/11/23 06:25:43;;;;;;;;;;;21.90;67.70;;;;;;1653840;71;559;-61
2022/11/23 06:27:57;;;;;;;;;;;21.90;67.50;;;;;;1661013;71;1167;-61
2022/11/23 06:29:59;;;;;;;;;;;21.90;67.40;;;;;;1660406;71;643;-60
2022/11/23 06:32:01;;;;;;;;;;;21.90;67.30;;;;;;1667714;71;1549;-60
2022/11/23 06:34:03;;;;;;;;;;;21.90;67.30;;;;;;1662287;71;1910;-60
2022/11/23 06:36:05;;;;;;;;;;;21.90;67.20;;;;;;1659968;71;717;-62
2022/11/23 06:38:07;;;;;;;;;;;21.90;67.50;;;;;;1654183;71;1158;-60
2022/11/23 06:40:10;;;;;;;;;;;21.80;67.80;;;;;;1663362;71;760;-62
2022/11/23 06:42:12;;;;;;;;;;;21.70;68.40;;;;;;1651114;71;573;-59
2022/11/23 06:44:14;;;;;;;;;;;21.70;68.40;;;;;;1668836;71;712;-59
2022/11/23 06:46:16;;;;;;;;;;;21.70;68.50;;;;;;1656114;71;1297;-60
2022/11/23 06:48:18;;;;;;;;;;;21.80;68.20;;;;;;1654572;71;1127;-61
2022/11/23 06:50:19;;;;;;;;;;;21.90;67.70;;;;;;1666641;71;850;-60
2022/11/23 06:52:21;;;;;;;;;;;22.00;67.30;;;;;;1651999;71;717;-60
2022/11/23 06:54:23;;;;;;;;;;;22.00;67.10;;;;;;1664063;71;1926;-60
2022/11/23 06:56:25;;;;;;;;;;;22.00;66.90;;;;;;1657351;71;682;-61
2022/11/23 06:58:27;;;;;;;;;;;22.00;66.90;;;;;;1673914;71;1140;-60
2022/11/23 07:00:29;;;;;;;;;;;21.90;66.90;;;;;;1669256;70;1608;-59
2022/11/23 07:02:31;;;;;;;;;;;21.90;66.90;;;;;;1655107;71;849;-60
2022/11/23 07:04:32;;;;;;;;;;;22.00;66.70;;;;;;1655169;71;698;-61
2022/11/23 07:06:34;;;;;;;;;;;22.00;66.40;;;;;;1661478;71;658;-59
2022/11/23 07:08:42;;;;;;;;;;;22.00;66.30;;;;;;1670567;70;1147;-61
2022/11/23 07:10:40;;;;;;;;;;;22.00;66.20;;;;;;1660983;71;1635;-60
2022/11/23 07:12:42;;;;;;;;;;;22.00;66.10;;;;;;1659255;71;656;-59
2022/11/23 07:14:44;;;;;;;;;;;22.00;66.10;;;;;;1665616;71;1930;-61
2022/11/23 07:16:45;;;;;;;;;;;22.00;66.00;;;;;;1658691;71;692;-60
2022/11/23 07:18:47;;;;;;;;;;;22.10;66.00;;;;;;1638760;71;3087;-59
2022/11/23 07:20:49;;;;;;;;;;;22.00;65.90;;;;;;1578902;73;746;-59
2022/11/23 07:23:02;;;;;;;;;;;22.00;65.80;;;;;;1586037;73;667;-59
2022/11/23 07:25:04;;;;;;;;;;;22.00;65.80;;;;;;1581271;73;716;-59
2022/11/23 07:27:06;;;;;;;;;;;22.00;66.00;;;;;;1577182;73;1481;-61
2022/11/23 07:29:08;;;;;;;;;;;21.90;66.20;;;;;;1574849;73;1194;-59
2022/11/23 07:31:10;;;;;;;;;;;21.90;66.40;;;;;;1573400;74;667;-60
2022/11/23 07:33:12;;;;;;;;;;;21.90;66.50;;;;;;1562327;74;682;-60
2022/11/23 07:35:13;;;;;;;;;;;22.00;66.40;;;;;;1563113;74;1939;-60
2022/11/23 07:37:15;;;;;;;;;;;21.90;66.40;;;;;;1550377;74;710;-60
2022/11/23 07:39:17;;;;;;;;;;;21.90;66.20;;;;;;1554654;74;1125;-60
2022/11/23 07:41:19;;;;;;;;;;;21.90;66.60;;;;;;1560455;74;1462;-60
2022/11/23 07:43:21;;;;;;;;;;;21.90;66.50;;;;;;1562750;74;637;-60
2022/11/23 07:45:23;;;;;;;;;;;21.90;66.20;;;;;;1550313;74;659;-58
2022/11/23 07:47:25;;;;;;;;;;;22.00;66.00;;;;;;1563353;74;651;-59
2022/11/23 07:49:27;;;;;;;;;;;22.00;66.20;;;;;;1571344;74;1075;-60
2022/11/23 07:51:29;;;;;;;;;;;22.00;66.20;;;;;;1575000;74;661;-59
2022/11/23 07:53:30;;;;;;;;;;;21.90;66.20;;;;;;1559049;74;674;-60
2022/11/23 07:55:32;;;;;;;;;;;21.90;66.30;;;;;;1562507;74;1912;-60
2022/11/23 07:57:34;;;;;;;;;;;21.90;66.50;;;;;;1560314;74;1148;-60
2022/11/23 07:59:36;;;;;;;;;;;21.80;66.80;;;;;;1567291;74;526;-60
2022/11/23 08:01:38;;;;;;;;;;;21.90;66.80;;;;;;1569280;74;645;-60
2022/11/23 08:03:40;;;;;;;;;;;21.90;66.80;;;;;;1569400;74;682;-60
2022/11/23 08:05:42;;;;;;;;;;;21.80;66.70;;;;;;1559843;74;726;-60
2022/11/23 08:07:44;;;;;;;;;;;21.80;66.60;;;;;;1562117;74;1085;-60
2022/11/23 08:09:46;;;;;;;;;;;21.90;66.50;;;;;;1558735;74;1576;-60
2022/11/23 08:11:48;;;;;;;;;;;22.00;66.20;;;;;;1559875;74;628;-60
2022/11/23 08:13:50;;;;;;;;;;;22.10;65.90;;;;;;1567349;74;684;-60
2022/11/23 08:15:51;;;;;;;;;;;22.10;65.60;;;;;;1550825;74;1940;-59
2022/11/23 08:17:58;;;;;;;;;;;22.10;65.50;;;;;;1551086;74;1138;-59
2022/11/23 08:19:59;;;;;;;;;;;22.10;65.70;;;;;;1551823;74;1010;-59
2022/11/23 08:22:01;;;;;;;;;;;22.10;65.70;;;;;;1566335;74;651;-63
2022/11/23 08:24:03;;;;;;;;;;;22.10;65.70;;;;;;1553932;74;1487;-59
2022/11/23 08:26:05;;;;;;;;;;;22.20;65.60;;;;;;1559022;74;685;-60
2022/11/23 08:28:07;;;;;;;;;;;22.20;65.50;;;;;;1566285;73;1130;-61
2022/11/23 08:30:09;;;;;;;;;;;22.10;65.40;;;;;;1562449;74;729;-63
2022/11/23 08:32:11;;;;;;;;;;;22.20;65.30;;;;;;1564775;74;680;-61
2022/11/23 08:34:13;;;;;;;;;;;22.20;65.20;;;;;;1563641;74;667;-60
2022/11/23 08:36:15;;;;;;;;;;;22.20;65.20;;;;;;1549389;74;1944;-59
2022/11/23 08:38:17;;;;;;;;;;;22.20;65.20;;;;;;1565420;74;1185;-59
2022/11/23 08:40:19;;;;;;;;;;;22.10;65.20;;;;;;1562295;74;861;-59
2022/11/23 08:42:21;;;;;;;;;;;22.20;65.20;;;;;;1559642;74;655;-59
2022/11/23 08:44:23;;;;;;;;;;;22.20;65.10;;;;;;1556177;74;683;-60
2022/11/23 08:46:24;;;;;;;;;;;22.20;65.10;;;;;;1557212;74;635;-59
2022/11/23 08:48:27;;;;;;;;;;;22.20;65.10;;;;;;1552652;74;1128;-59
2022/11/23 08:50:29;;;;;;;;;;;22.20;65.00;;;;;;1557108;74;548;-59
2022/11/23 08:52:31;;;;;;;;;;;22.20;65.10;;;;;;1558774;74;1471;-59
2022/11/23 08:54:32;;;;;;;;;;;22.30;65.20;;;;;;1573190;74;2004;-59
2022/11/23 08:56:34;;;;;;;;;;;22.20;65.00;;;;;;1575917;74;621;-59
2022/11/23 08:58:36;;;;;;;;;;;22.20;65.10;;;;;;1557979;74;1140;-59
2022/11/23 09:00:38;;;;;;;;;;;22.20;65.10;;;;;;1562625;74;731;-59
2022/11/23 09:02:40;;;;;;;;;;;22.20;65.10;;;;;;1571314;74;567;-59
2022/11/23 09:04:42;;;;;;;;;;;22.30;65.30;;;;;;1568736;74;665;-60
2022/11/23 09:06:44;;;;;;;;;;;22.20;65.20;;;;;;1568392;74;1537;-59
2022/11/23 09:08:46;;;;;;;;;;;22.20;65.50;;;;;;1565224;74;1144;-58
2022/11/23 09:10:48;;;;;;;;;;;22.20;65.60;;;;;;1553261;74;672;-59
2022/11/23 09:12:50;;;;;;;;;;;22.20;65.70;;;;;;1567645;74;639;-57
2022/11/23 09:14:52;;;;;;;;;;;22.20;65.80;;;;;;1549725;74;1947;-57
2022/11/23 09:16:54;;;;;;;;;;;22.20;66.10;;;;;;1560542;74;689;-59
2022/11/23 09:18:56;;;;;;;;;;;22.20;66.30;;;;;;1557972;73;1138;-57
2022/11/23 09:20:58;;;;;;;;;;;22.10;66.40;;;;;;1552893;74;1573;-58
2022/11/23 09:23:00;;;;;;;;;;;22.10;66.60;;;;;;1561655;74;673;-56
2022/11/23 09:25:02;;;;;;;;;;;22.10;66.80;;;;;;1573410;74;605;-56
2022/11/23 09:27:04;;;;;;;;;;;22.10;67.00;;;;;;1556088;74;686;-56
2022/11/23 09:29:06;;;;;;;;;;;22.00;67.20;;;;;;1554977;74;1134;-57
2022/11/23 09:31:08;;;;;;;;;;;22.00;67.40;;;;;;1563549;74;685;-57
2022/11/23 09:33:10;;;;;;;;;;;21.90;67.50;;;;;;1564297;74;727;-56
2022/11/23 09:35:12;;;;;;;;;;;21.90;67.70;;;;;;1567727;74;1939;-56
2022/11/23 09:37:14;;;;;;;;;;;21.90;67.80;;;;;;1548789;74;642;-57
2022/11/23 09:39:16;;;;;;;;;;;21.90;67.80;;;;;;1563105;73;1153;-57
2022/11/23 09:41:34;;;;;;;;;;;21.90;67.90;;;;;;1560889;74;656;-56
2022/11/23 09:43:40;;;;;;;;;;;21.90;68.00;;;;;;1559045;74;649;-59
2022/11/23 09:45:46;;;;;;;;;;;21.90;67.90;;;;;;1564029;74;670;-58
2022/11/23 09:48:05;;;;;;;;;;;21.90;67.90;;;;;;1563027;74;1492;-57
2022/11/23 09:50:09;;;;;;;;;;;22.00;67.90;;;;;;1545897;74;1440;-59
2022/11/23 09:52:17;;;;;;;;;;;22.00;67.80;;;;;;1563554;74;628;-58
2022/11/23 09:54:21;;;;;;;;;;;21.90;67.90;;;;;;1556775;74;651;-59
2022/11/23 09:56:24;;;;;;;;;;;22.00;67.80;;;;;;1570149;74;1918;-56
2022/11/23 09:58:27;;;;;;;;;;;21.90;67.80;;;;;;1558082;74;1137;-57
2022/11/23 10:00:30;;;;;;;;;;;22.00;67.70;;;;;;1566972;74;698;-57
2022/11/23 10:02:33;;;;;;;;;;;22.00;67.60;;;;;;1568127;74;1502;-57
2022/11/23 10:04:35;;;;;;;;;;;22.00;67.60;;;;;;1556992;74;669;-56
2022/11/23 10:06:37;;;;;;;;;;;22.00;67.50;;;;;;1569134;74;563;-56
2022/11/23 10:08:43;;;;;;;;;;;22.00;67.30;;;;;;1557635;73;1113;-59
2022/11/23 10:10:45;;;;;;;;;;;22.10;67.30;;;;;;1554129;74;1756;-58
2022/11/23 10:12:48;;;;;;;;;;;22.10;67.20;;;;;;1563168;74;729;-55
2022/11/23 10:15:04;;;;;;;;;;;22.10;67.10;;;;;;1546594;74;761;-57
2022/11/23 10:17:16;;;;;;;;;;;22.20;66.80;;;;;;1560714;74;1457;-57
2022/11/23 10:19:20;;;;;;;;;;;22.20;66.70;;;;;;1546575;74;1823;-56
2022/11/23 10:21:29;;;;;;;;;;;22.20;66.70;;;;;;1561363;74;2030;-56
2022/11/23 10:23:48;;;;;;;;;;;22.10;66.70;;;;;;1557875;74;1861;-60
2022/11/23 10:25:50;;;;;;;;;;;22.20;66.60;;;;;;1566112;74;920;-59
2022/11/23 10:27:54;;;;;;;;;;;22.20;66.50;;;;;;1559077;74;1141;-59
2022/11/23 10:29:56;;;;;;;;;;;22.20;66.50;;;;;;1555972;74;1165;-60
2022/11/23 10:31:58;;;;;;;;;;;22.20;66.40;;;;;;1577388;74;722;-60
2022/11/23 10:34:05;;;;;;;;;;;22.30;66.50;;;;;;1551452;74;678;-60
2022/11/23 10:36:08;;;;;;;;;;;22.20;66.30;;;;;;1557697;74;1938;-60
2022/11/23 10:38:14;;;;;;;;;;;22.30;66.30;;;;;;1565070;74;1121;-59
2022/11/23 10:40:20;;;;;;;;;;;22.20;66.20;;;;;;1565178;74;696;-60
2022/11/23 10:42:27;;;;;;;;;;;22.30;66.30;;;;;;1564387;74;1298;-60
2022/11/23 10:44:36;;;;;;;;;;;22.30;66.20;;;;;;1558320;74;1776;-60
2022/11/23 10:46:39;;;;;;;;;;;22.30;66.00;;;;;;1561111;74;1090;-60
2022/11/23 10:48:43;;;;;;;;;;;22.30;65.90;;;;;;1572975;73;1161;-62
2022/11/23 10:50:44;;;;;;;;;;;22.40;65.80;;;;;;1576305;74;1160;-59
2022/11/23 10:52:50;;;;;;;;;;;22.40;65.70;;;;;;1555250;74;663;-60
2022/11/23 10:54:53;;;;;;;;;;;22.40;65.70;;;;;;1546134;74;690;-59
2022/11/23 10:56:55;;;;;;;;;;;22.40;65.50;;;;;;1571098;74;1929;-59
2022/11/23 10:58:57;;;;;;;;;;;22.40;65.30;;;;;;1560232;74;1489;-60
2022/11/23 11:01:00;;;;;;;;;;;22.50;65.40;;;;;;1572684;74;725;-60
2022/11/23 11:03:02;;;;;;;;;;;22.50;65.20;;;;;;1523267;74;1309;-60
2022/11/23 11:05:15;;;;;;;;;;;22.50;65.00;;;;;;1579024;75;731;-60
2022/11/23 11:07:18;;;;;;;;;;;22.50;64.90;;;;;;1546363;74;627;-60
2022/11/23 11:09:20;;;;;;;;;;;22.50;64.80;;;;;;1547457;74;1113;-60
2022/11/23 11:11:24;;;;;;;;;;;22.50;64.80;;;;;;1564531;74;664;-61
2022/11/23 11:13:29;;;;;;;;;;;22.60;64.70;;;;;;1560312;74;1840;-59
2022/11/23 11:15:31;;;;;;;;;;;22.60;64.60;;;;;;1550743;74;1930;-60
2022/11/23 11:17:33;;;;;;;;;;;22.60;64.50;;;;;;1559511;74;1121;-61
2022/11/23 11:19:38;;;;;;;;;;;22.60;64.30;;;;;;1560937;74;648;-59
2022/11/23 11:21:40;;;;;;;;;;;22.70;64.30;;;;;;1559374;74;1428;-60
2022/11/23 11:23:42;;;;;;;;;;;22.60;64.10;;;;;;1567908;74;669;-62
2022/11/23 11:25:44;;;;;;;;;;;22.70;64.00;;;;;;1562247;74;733;-60
2022/11/23 11:27:48;;;;;;;;;;;22.70;64.00;;;;;;1565349;73;1148;-60
2022/11/23 11:29:50;;;;;;;;;;;22.80;63.90;;;;;;1573012;74;1826;-60
2022/11/23 11:31:53;;;;;;;;;;;22.70;63.90;;;;;;1553961;74;752;-59
2022/11/23 11:34:00;;;;;;;;;;;22.70;63.90;;;;;;1571552;74;648;-61
2022/11/23 11:36:02;;;;;;;;;;;22.70;63.90;;;;;;1563038;74;1935;-60
2022/11/23 11:38:05;;;;;;;;;;;22.70;63.80;;;;;;1576295;74;1159;-60
2022/11/23 11:40:12;;;;;;;;;;;22.70;63.80;;;;;;1559452;74;1476;-59
2022/11/23 11:42:15;;;;;;;;;;;22.80;63.90;;;;;;1569694;74;1458;-59
2022/11/23 11:44:19;;;;;;;;;;;22.70;63.70;;;;;;1553581;74;1376;-61
2022/11/23 11:46:25;;;;;;;;;;;22.70;63.80;;;;;;1559950;74;715;-62
2022/11/23 11:48:32;;;;;;;;;;;22.70;63.80;;;;;;1544990;74;1210;-60
2022/11/23 11:50:35;;;;;;;;;;;22.70;63.70;;;;;;1569137;74;633;-59
2022/11/23 11:52:37;;;;;;;;;;;22.70;63.70;;;;;;1555504;74;1538;-59
2022/11/23 11:54:43;;;;;;;;;;;22.70;63.70;;;;;;1549106;74;1382;-60
2022/11/23 11:56:47;;;;;;;;;;;22.70;63.70;;;;;;1547758;74;1923;-61
2022/11/23 11:58:51;;;;;;;;;;;22.70;63.70;;;;;;1559649;74;1149;-62
2022/11/23 12:00:57;;;;;;;;;;;22.60;63.80;;;;;;1539371;74;667;-62
2022/11/23 12:03:03;;;;;;;;;;;22.60;63.80;;;;;;1530850;74;927;-63
2022/11/23 12:05:07;;;;;;;;;;;22.70;63.80;;;;;;1560449;74;712;-61
2022/11/23 12:07:10;;;;;;;;;;;22.70;63.80;;;;;;1556177;74;707;-60
2022/11/23 12:09:26;;;;;;;;;;;22.60;63.80;;;;;;1558821;73;1493;-59
2022/11/23 12:11:27;;;;;;;;;;;22.60;63.90;;;;;;1567353;74;721;-60